Time;durP1;ratioP1;P1;durP2;ratioP2;P2;SDS_P1;SDS_P2;PMS_P1;PMS_P2;Temp;Humidity;BMP_temperature;BMP_pressure;BME280_temperature;BME280_humidity;BME280_pressure;Samples;Min_cycle;Max_cycle;Signal;HPM_P1;HPM_P2
2023/04/23 00:04:52;;;;;;;4.20;2.90;;;;;;;12.39;75.55;94975.66;6035528;23;20655;-86
2023/04/23 00:07:33;;;;;;;6.73;2.83;;;;;;;12.42;75.77;94972.69;5987160;23;20272;-85
2023/04/23 00:10:33;;;;;;;4.43;2.93;;;;;;;12.43;76.33;94970.91;5988227;23;20507;-86
2023/04/23 00:14:00;;;;;;;4.33;2.60;;;;;;;12.41;76.84;94984.09;5974042;23;20162;-86
2023/04/23 00:19:53;;;;;;;7.73;5.53;;;;;;;12.40;77.72;94987.69;5950966;24;20176;-86
2023/04/23 00:22:53;;;;;;;7.57;5.10;;;;;;;12.33;78.95;94991.94;5926355;24;20535;-87
2023/04/23 00:25:27;;;;;;;6.37;4.87;;;;;;;12.28;80.01;94977.81;5918114;24;20247;-86
2023/04/23 00:28:08;;;;;;;4.13;3.73;;;;;;;12.31;80.98;94987.91;5927473;24;20634;-86
2023/04/23 00:31:07;;;;;;;7.10;3.50;;;;;;;12.26;82.11;94992.81;5948257;24;20331;-86
2023/04/23 00:33:40;;;;;;;4.33;3.57;;;;;;;12.23;82.68;94996.56;5944337;24;20321;-85
2023/04/23 00:36:18;;;;;;;4.63;3.47;;;;;;;12.10;84.40;95002.34;5950335;24;20164;-86
2023/04/23 00:38:47;;;;;;;6.13;4.13;;;;;;;12.09;84.68;94995.50;5952719;24;20664;-86
2023/04/23 00:41:13;;;;;;;4.00;3.63;;;;;;;12.01;86.04;95003.34;5958847;24;20250;-85
2023/04/23 00:43:53;;;;;;;4.97;4.23;;;;;;;12.04;87.04;95013.41;5979494;23;20171;-85
2023/04/23 00:46:29;;;;;;;4.73;3.97;;;;;;;11.91;87.70;95011.34;6007580;23;20167;-84
2023/04/23 00:48:59;;;;;;;5.87;3.83;;;;;;;11.81;89.48;95018.53;5964975;23;20190;-86
2023/04/23 00:51:25;;;;;;;5.23;3.73;;;;;;;11.44;92.41;95008.69;5987063;23;20163;-85
2023/04/23 00:53:58;;;;;;;5.23;3.53;;;;;;;11.50;92.21;95009.84;6084548;23;20640;-85
2023/04/23 00:56:24;;;;;;;9.80;3.77;;;;;;;11.50;92.19;95008.03;6103266;23;20159;-84
2023/04/23 00:58:50;;;;;;;5.70;3.70;;;;;;;11.56;92.09;95004.75;6102202;23;20187;-84
2023/04/23 01:01:22;;;;;;;3.60;3.23;;;;;;;11.54;92.16;95004.13;6101307;23;20175;-85
2023/04/23 01:04:05;;;;;;;4.70;3.40;;;;;;;11.51;91.91;95007.06;6102873;23;20160;-85
2023/04/23 01:06:37;;;;;;;9.30;3.37;;;;;;;11.41;92.49;95000.44;6105018;23;20230;-84
2023/04/23 01:09:04;;;;;;;3.80;3.40;;;;;;;11.54;91.44;95006.72;6078112;23;20183;-84
2023/04/23 01:11:33;;;;;;;4.63;3.30;;;;;;;11.53;91.72;94999.91;6078839;23;20206;-85
2023/04/23 01:14:02;;;;;;;2.57;2.37;;;;;;;11.50;91.84;95000.25;6127499;23;20175;-85
2023/04/23 01:16:37;;;;;;;3.30;2.93;;;;;;;11.42;92.15;94994.25;6078552;23;20160;-86
2023/04/23 01:19:10;;;;;;;3.70;2.97;;;;;;;11.52;91.24;94998.28;6102951;23;20210;-85
2023/04/23 01:21:39;;;;;;;6.33;3.13;;;;;;;11.55;91.51;94987.53;6100325;23;20179;-86
2023/04/23 01:24:09;;;;;;;4.07;2.73;;;;;;;11.54;91.21;95000.72;6103225;23;20195;-85
2023/04/23 01:26:37;;;;;;;3.13;2.70;;;;;;;11.55;91.03;95004.94;6102111;23;20155;-86
2023/04/23 01:29:04;;;;;;;3.17;2.23;;;;;;;11.56;90.85;95004.75;6102198;23;20239;-85
2023/04/23 01:31:30;;;;;;;3.50;2.50;;;;;;;11.47;91.08;94997.16;6127079;23;20168;-85
2023/04/23 01:34:01;;;;;;;2.43;2.23;;;;;;;11.43;91.01;95001.06;6101806;23;20193;-85
2023/04/23 01:36:32;;;;;;;2.93;2.70;;;;;;;11.50;90.53;95004.63;6125997;23;20144;-84
2023/04/23 01:39:00;;;;;;;2.73;2.20;;;;;;;11.56;90.01;95014.34;6103416;23;20250;-84
2023/04/23 01:41:34;;;;;;;3.63;2.20;;;;;;;11.52;90.24;95013.06;6102407;23;20160;-85
2023/04/23 01:44:05;;;;;;;2.80;2.10;;;;;;;11.46;90.55;95013.72;6104610;23;20156;-86
2023/04/23 01:46:59;;;;;;;2.53;2.33;;;;;;;11.51;90.37;95017.47;6104821;23;20195;-86
2023/04/23 01:49:30;;;;;;;3.33;2.00;;;;;;;11.56;89.98;95020.34;6104901;23;20609;-85
2023/04/23 01:51:58;;;;;;;3.13;1.93;;;;;;;11.58;89.89;95023.63;6102891;23;20602;-86
2023/04/23 01:54:30;;;;;;;2.90;1.73;;;;;;;11.51;90.27;95022.66;6078895;23;20188;-86
2023/04/23 01:57:13;;;;;;;2.50;1.60;;;;;;;11.59;89.90;95019.25;6103289;23;20162;-86
2023/04/23 01:59:39;;;;;;;2.47;1.43;;;;;;;11.44;89.48;95021.69;6102414;23;20166;-86
2023/04/23 02:02:12;;;;;;;2.47;1.70;;;;;;;11.37;88.97;95018.13;6103795;23;20187;-86
2023/04/23 02:04:48;;;;;;;1.43;1.30;;;;;;;11.49;88.25;95019.44;6103642;23;20397;-86
2023/04/23 02:07:13;;;;;;;1.53;1.30;;;;;;;11.31;87.81;95024.81;6102972;23;20186;-85
2023/04/23 02:09:49;;;;;;;1.20;1.10;;;;;;;11.33;86.55;95022.06;6101856;23;20163;-86
2023/04/23 02:12:18;;;;;;;3.80;1.23;;;;;;;11.49;86.11;95018.63;6103274;23;20582;-85
2023/04/23 02:14:44;;;;;;;1.80;1.33;;;;;;;11.46;86.28;95014.53;6076804;23;20180;-86
2023/04/23 02:17:17;;;;;;;3.40;1.00;;;;;;;11.36;86.26;95013.91;6100219;23;20215;-86
2023/04/23 02:19:54;;;;;;;2.53;0.97;;;;;;;11.43;86.49;95009.69;6093435;23;20218;-86
2023/04/23 02:22:43;;;;;;;2.60;1.40;;;;;;;11.31;86.63;95024.00;6099936;23;20503;-85
2023/04/23 02:25:38;;;;;;;2.00;1.03;;;;;;;11.25;87.07;95014.25;6101982;23;20163;-86
2023/04/23 02:28:07;;;;;;;1.30;0.90;;;;;;;11.32;86.86;95008.25;6077729;23;20187;-85
2023/04/23 02:30:45;;;;;;;1.20;1.03;;;;;;;11.23;87.40;95013.63;6077648;23;20174;-86
2023/04/23 02:33:18;;;;;;;2.03;1.10;;;;;;;11.24;86.75;95012.63;6125380;23;20167;-86
2023/04/23 02:35:52;;;;;;;1.83;0.90;;;;;;;11.27;86.07;95009.69;6077957;23;20172;-86
2023/04/23 02:38:20;;;;;;;0.90;0.90;;;;;;;11.22;86.00;95017.16;6101233;23;20184;-85
2023/04/23 02:40:55;;;;;;;1.17;1.03;;;;;;;11.18;85.81;95008.09;6077391;23;20163;-85
2023/04/23 02:43:24;;;;;;;1.23;1.10;;;;;;;11.01;85.84;95015.09;6103643;23;20232;-85
2023/04/23 02:45:52;;;;;;;2.07;0.83;;;;;;;10.99;85.83;95002.25;6078601;23;20152;-85
2023/04/23 02:48:21;;;;;;;0.83;0.80;;;;;;;11.02;85.15;95004.53;6102178;23;20198;-84
2023/04/23 02:50:46;;;;;;;2.13;0.90;;;;;;;10.78;85.14;94994.16;6101467;23;20468;-86
2023/04/23 02:53:12;;;;;;;1.53;0.93;;;;;;;11.01;84.19;94999.50;6077264;23;20166;-85
2023/04/23 02:55:39;;;;;;;1.83;0.90;;;;;;;11.03;84.43;94998.34;6077608;23;20741;-85
2023/04/23 02:58:09;;;;;;;1.23;1.13;;;;;;;11.12;83.84;95000.94;6112291;23;20218;-85
2023/04/23 03:00:49;;;;;;;0.80;0.80;;;;;;;11.16;83.79;95002.25;6114513;23;20700;-85
2023/04/23 03:03:16;;;;;;;1.17;0.90;;;;;;;11.05;83.62;94996.41;6073390;23;20646;-86
2023/04/23 03:05:51;;;;;;;1.53;0.90;;;;;;;11.10;83.20;94995.09;6097130;23;20162;-86
2023/04/23 03:08:28;;;;;;;0.80;0.80;;;;;;;10.87;83.44;94998.38;6077966;23;20214;-84
2023/04/23 03:10:57;;;;;;;1.63;0.87;;;;;;;10.87;83.34;94992.38;6101557;23;20156;-85
2023/04/23 03:13:26;;;;;;;0.90;0.70;;;;;;;10.94;82.27;94991.53;6098977;23;20160;-85
2023/04/23 03:15:52;;;;;;;1.50;0.80;;;;;;;11.00;82.31;94996.09;6071905;23;20181;-85
2023/04/23 03:18:31;;;;;;;0.93;0.90;;;;;;;10.91;82.77;94999.66;6068543;23;20223;-84
2023/04/23 03:23:59;;;;;;;0.77;0.77;;;;;;;10.97;82.44;95012.00;6092265;23;20164;-84
2023/04/23 03:26:33;;;;;;;0.90;0.83;;;;;;;10.98;82.56;95000.63;6100777;23;20164;-85
2023/04/23 03:29:05;;;;;;;0.60;0.60;;;;;;;11.03;81.99;95007.94;6099353;23;20188;-84
2023/04/23 03:31:36;;;;;;;1.07;1.00;;;;;;;10.97;82.21;95016.41;6099000;23;20219;-84
2023/04/23 03:34:22;;;;;;;1.03;0.80;;;;;;;11.12;81.77;95016.53;6098395;23;20486;-84
2023/04/23 03:36:58;;;;;;;;;;;;;;;;;;;;;
2023/04/23 03:39:34;;;;;;;1.87;0.80;;;;;;;11.02;82.00;95025.31;6100434;23;20204;-84
2023/04/23 03:42:04;;;;;;;1.33;0.57;;;;;;;11.02;81.80;95016.69;6097960;23;20152;-84
2023/04/23 03:44:50;;;;;;;1.67;1.00;;;;;;;10.98;82.47;95020.63;6075014;23;20143;-85
2023/04/23 03:47:45;;;;;;;2.37;1.10;;;;;;;11.07;82.25;95025.63;6075051;23;20259;-85
2023/04/23 03:50:26;;;;;;;0.63;0.63;;;;;;;11.02;82.38;95025.31;6100929;23;20167;-85
2023/04/23 03:53:16;;;;;;;1.97;1.10;;;;;;;11.07;82.48;95017.03;6099764;23;20160;-85
2023/04/23 03:55:56;;;;;;;0.80;0.80;;;;;;;11.03;82.52;95013.94;6070345;23;20180;-84
2023/04/23 03:59:16;;;;;;;1.70;0.80;;;;;;;10.98;82.39;95021.44;6099810;23;20235;-86
2023/04/23 04:02:16;;;;;;;1.03;0.83;;;;;;;10.96;82.81;95023.38;6034434;23;20166;-86
2023/04/23 04:04:53;;;;;;;0.83;0.83;;;;;;;10.94;82.80;95017.50;6031703;23;20261;-86
2023/04/23 04:07:43;;;;;;;;;;;;;;;;;;;;;
2023/04/23 04:10:33;;;;;;;1.07;0.60;;;;;;;10.98;82.76;95023.22;6005886;23;20274;-85
2023/04/23 04:13:03;;;;;;;0.70;0.70;;;;;;;10.94;82.95;95012.31;6017395;23;20692;-85
2023/04/23 04:15:49;;;;;;;1.00;0.90;;;;;;;10.97;83.22;95011.19;6014334;23;20249;-84
2023/04/23 04:18:44;;;;;;;0.77;0.77;;;;;;;10.97;82.69;95014.59;6016945;23;20209;-85
2023/04/23 04:22:03;;;;;;;;;;;;;;;;;;;;;
2023/04/23 04:24:40;;;;;;;1.00;0.90;;;;;;;10.96;82.45;95027.75;6009086;23;20249;-86
2023/04/23 04:27:32;;;;;;;0.97;0.80;;;;;;;10.98;82.33;95028.41;5983606;23;20908;-86
2023/04/23 04:33:52;;;;;;;0.70;0.63;;;;;;;10.96;82.79;95020.78;6031879;23;20245;-85
2023/04/23 04:36:47;;;;;;;2.23;0.70;;;;;;;10.95;83.27;95015.72;6035975;23;20174;-85
2023/04/23 04:39:26;;;;;;;0.90;0.80;;;;;;;10.99;83.52;95020.44;6014116;23;20150;-85
2023/04/23 04:42:05;;;;;;;0.93;0.87;;;;;;;10.98;83.26;95025.81;6014419;23;20162;-84
2023/04/23 04:45:12;;;;;;;0.80;0.80;;;;;;;11.02;83.43;95027.91;6014277;23;20158;-83
2023/04/23 04:47:53;;;;;;;2.00;1.00;;;;;;;11.04;83.11;95028.56;6013203;23;20185;-85
2023/04/23 04:50:29;;;;;;;1.33;0.90;;;;;;;11.07;83.44;95030.03;6014289;23;20170;-86
2023/04/23 04:53:17;;;;;;;1.17;1.00;;;;;;;11.10;83.23;95018.50;6014451;23;20157;-85
2023/04/23 04:56:09;;;;;;;0.83;0.83;;;;;;;11.11;83.31;95020.09;6037051;23;20206;-85
2023/04/23 04:58:50;;;;;;;0.87;0.87;;;;;;;11.15;83.58;95026.63;5998905;23;20189;-85
2023/04/23 05:01:36;;;;;;;0.80;0.80;;;;;;;11.25;82.96;95024.66;6043538;23;20219;-86
2023/04/23 05:04:21;;;;;;;0.80;0.80;;;;;;;11.29;83.16;95028.53;6068478;23;20160;-84
2023/04/23 05:06:59;;;;;;;1.03;0.90;;;;;;;11.36;82.98;95024.31;6101313;23;20160;-85
2023/04/23 05:09:42;;;;;;;1.10;1.03;;;;;;;11.38;82.67;95027.56;6100550;23;20188;-86
2023/04/23 05:12:43;;;;;;;;;;;;;;;;;;;;;
2023/04/23 05:15:24;;;;;;;1.20;1.10;;;;;;;11.51;82.85;95025.25;6104458;23;20266;-86
2023/04/23 05:17:53;;;;;;;1.00;1.00;;;;;;;11.40;83.41;95010.03;6100782;23;20184;-85
2023/04/23 05:20:23;;;;;;;2.40;1.20;;;;;;;11.56;82.36;95014.34;6101297;23;20231;-85
2023/04/23 05:23:01;;;;;;;1.50;1.40;;;;;;;11.58;82.20;95021.03;6077265;23;20157;-85
2023/04/23 05:25:34;;;;;;;1.43;1.33;;;;;;;11.62;82.14;95032.72;6077861;23;20168;-84
2023/04/23 05:28:00;;;;;;;1.30;1.20;;;;;;;11.56;82.54;95024.75;6076048;23;20210;-85
2023/04/23 05:30:33;;;;;;;1.90;1.33;;;;;;;11.55;83.16;95029.13;6100851;23;20160;-85
2023/04/23 05:33:01;;;;;;;1.40;1.30;;;;;;;11.72;81.92;95034.31;6099657;23;20207;-85
2023/04/23 05:35:42;;;;;;;1.50;1.40;;;;;;;11.64;82.47;95032.53;6100525;23;20188;-85
2023/04/23 05:38:15;;;;;;;1.20;1.10;;;;;;;11.50;82.86;95025.44;6077956;23;20186;-85
2023/04/23 05:40:41;;;;;;;1.23;1.13;;;;;;;11.75;82.69;95029.59;6099714;23;20191;-85
2023/04/23 05:43:16;;;;;;;1.47;1.30;;;;;;;12.01;81.12;95026.75;6075628;23;20518;-83
2023/04/23 05:45:44;;;;;;;1.77;1.03;;;;;;;12.23;80.05;95022.59;6099643;23;20152;-84
2023/04/23 05:48:13;;;;;;;1.03;1.00;;;;;;;12.51;77.11;95022.13;6099185;23;20689;-84
2023/04/23 05:50:44;;;;;;;2.43;0.90;;;;;;;12.42;77.70;95027.38;6099697;23;20164;-84
2023/04/23 05:53:24;;;;;;;1.20;0.93;;;;;;;12.60;77.17;95023.69;6063017;23;20171;-84
2023/04/23 05:56:02;;;;;;;0.87;0.87;;;;;;;12.94;75.79;95029.31;6075185;23;20184;-84
2023/04/23 05:58:38;;;;;;;1.73;1.30;;;;;;;13.08;75.25;95027.75;6100371;23;20184;-85
2023/04/23 06:01:09;;;;;;;3.47;1.90;;;;;;;12.70;75.06;95022.47;6101798;23;20581;-84
2023/04/23 06:03:46;;;;;;;3.20;2.33;;;;;;;12.83;74.11;95018.50;6075445;23;20164;-84
2023/04/23 06:06:12;;;;;;;3.33;2.50;;;;;;;12.80;75.16;95018.84;6098811;23;20160;-85
2023/04/23 06:08:43;;;;;;;3.23;2.30;;;;;;;12.87;74.75;95019.75;6076133;23;20214;-84
2023/04/23 06:11:16;;;;;;;2.23;1.57;;;;;;;13.23;73.34;95018.19;6074899;23;20168;-84
2023/04/23 06:13:51;;;;;;;2.07;1.03;;;;;;;13.28;73.40;95023.69;6076103;23;20243;-85
2023/04/23 06:16:21;;;;;;;1.77;1.00;;;;;;;13.31;73.35;95023.34;6101802;23;20179;-85
2023/04/23 06:18:55;;;;;;;0.90;0.90;;;;;;;13.08;72.06;95017.34;6124542;23;20180;-84
2023/04/23 06:21:21;;;;;;;1.00;0.90;;;;;;;12.97;73.71;95012.50;6098916;23;20681;-85
2023/04/23 06:23:48;;;;;;;1.67;1.10;;;;;;;13.14;72.74;95013.19;6076394;23;20155;-83
2023/04/23 06:26:22;;;;;;;1.83;1.23;;;;;;;13.29;73.17;95020.09;6075227;23;20607;-85
2023/04/23 06:28:57;;;;;;;1.63;1.43;;;;;;;13.01;72.58;95016.41;6076895;23;20179;-85
2023/04/23 06:31:31;;;;;;;1.37;1.20;;;;;;;13.53;71.42;95026.09;6078535;23;20488;-86
2023/04/23 06:34:03;;;;;;;1.50;1.30;;;;;;;13.31;71.08;95022.53;6101505;23;20665;-85
2023/04/23 06:39:20;;;;;;;1.87;1.73;;;;;;;13.77;70.72;95020.59;6103609;23;20149;-84
2023/04/23 06:41:45;;;;;;;2.00;1.57;;;;;;;13.65;69.82;95021.22;6099476;23;20167;-85
2023/04/23 06:44:11;;;;;;;2.07;1.40;;;;;;;14.02;69.24;95015.09;6075629;23;20152;-85
2023/04/23 06:46:36;;;;;;;1.70;1.60;;;;;;;13.88;69.80;95020.16;6099400;23;20230;-84
2023/04/23 06:49:01;;;;;;;2.40;1.80;;;;;;;13.91;70.25;95020.78;6099903;23;20487;-85
2023/04/23 06:51:27;;;;;;;2.20;2.10;;;;;;;13.63;70.36;95023.22;6099886;23;20160;-83
2023/04/23 06:53:52;;;;;;;2.40;1.70;;;;;;;13.44;69.63;95014.91;6076132;23;20543;-84
2023/04/23 06:56:24;;;;;;;2.37;2.17;;;;;;;13.48;70.74;95008.34;6075518;23;20203;-85
2023/04/23 06:58:49;;;;;;;8.97;7.23;;;;;;;13.41;70.76;95001.41;6075445;23;20192;-84
2023/04/23 07:01:18;;;;;;;8.03;7.23;;;;;;;13.44;71.04;95012.31;6075524;23;20156;-85
2023/04/23 07:03:47;;;;;;;6.33;5.83;;;;;;;13.65;70.75;95011.59;6100287;23;20167;-82
2023/04/23 07:06:13;;;;;;;5.73;5.13;;;;;;;13.82;68.44;95002.59;6100302;23;20247;-84
2023/04/23 07:08:39;;;;;;;3.43;3.23;;;;;;;13.99;67.89;95010.25;6100468;23;20183;-83
2023/04/23 07:11:16;;;;;;;2.70;2.50;;;;;;;14.06;67.77;95008.53;6100443;23;20223;-86
2023/04/23 07:19:52;;;;;;;3.70;2.73;;;;;;;14.33;65.15;95013.09;6149976;23;20257;-80
2023/04/23 07:23:21;;;;;;;;;;;;;;;;;;;;;
2023/04/23 07:29:22;;;;;;;2.30;2.10;;;;;;;14.18;64.51;95002.66;6134461;23;20391;-84
2023/04/23 07:31:50;;;;;;;3.50;3.20;;;;;;;14.24;65.19;95003.75;6156551;23;20154;-84
2023/04/23 07:34:41;;;;;;;2.33;2.00;;;;;;;14.33;64.65;95002.63;6181230;23;20185;-84
2023/04/23 07:37:17;;;;;;;4.83;2.53;;;;;;;14.67;62.30;94996.81;6162090;23;20186;-84
2023/04/23 07:39:49;;;;;;;2.60;2.40;;;;;;;14.84;62.66;94997.38;6159812;23;20186;-85
2023/04/23 07:42:39;;;;;;;2.67;2.47;;;;;;;14.98;61.26;94986.03;6183791;23;20701;-85
2023/04/23 07:45:15;;;;;;;2.47;2.27;;;;;;;15.07;62.13;94991.13;6186388;23;20174;-84
2023/04/23 07:48:12;;;;;;;4.13;2.30;;;;;;;14.45;62.62;94995.97;6163569;23;20181;-84
2023/04/23 07:50:50;;;;;;;3.30;2.43;;;;;;;14.95;60.87;94985.59;6171254;23;20158;-84
2023/04/23 07:53:27;;;;;;;2.13;1.93;;;;;;;14.76;61.39;94987.03;6164485;23;20740;-85
2023/04/23 07:55:56;;;;;;;3.47;2.00;;;;;;;14.96;60.62;94984.59;6164183;23;20203;-85
2023/04/23 07:58:42;;;;;;;2.57;2.17;;;;;;;14.78;62.01;94982.44;6163800;23;20182;-85
2023/04/23 08:01:11;;;;;;;3.67;2.20;;;;;;;14.35;62.88;94986.78;6167787;23;20182;-85
2023/04/23 08:03:44;;;;;;;4.30;2.50;;;;;;;14.35;63.07;94974.53;6164564;23;20209;-86
2023/04/23 08:06:40;;;;;;;2.50;2.30;;;;;;;13.80;63.84;94975.88;6166486;23;20165;-84
2023/04/23 08:09:19;;;;;;;2.27;2.07;;;;;;;14.13;63.62;94973.69;6214531;23;20174;-84
2023/04/23 08:12:23;;;;;;;;;;;;;;;;;;;;;
2023/04/23 08:15:06;;;;;;;2.87;2.40;;;;;;;14.37;63.19;94972.53;6191219;23;20261;-85
2023/04/23 08:17:42;;;;;;;3.00;2.63;;;;;;;14.80;62.66;94959.53;6192099;23;20178;-84
2023/04/23 08:20:30;;;;;;;2.53;1.83;;;;;;;15.11;62.67;94955.75;6182722;23;20248;-85
2023/04/23 08:24:07;;;;;;;;;;;;;;;;;;;;;
2023/04/23 08:50:06;;;;;;;2.47;1.60;;;;;;;16.85;55.64;94941.41;6159233;23;20179;-84
2023/04/23 08:52:34;;;;;;;1.70;1.60;;;;;;;16.84;54.99;94947.69;6156527;23;20668;-79
2023/04/23 08:55:00;;;;;;;2.22;1.77;;;;;;;16.87;54.46;94955.13;6155968;23;20624;-77
2023/04/23 08:57:26;;;;;;;2.42;2.00;;;;;;;16.79;53.82;94950.13;6153566;23;20179;-79
2023/04/23 08:59:52;;;;;;;2.08;1.67;;;;;;;16.35;54.42;94948.78;6154688;23;20214;-78
2023/04/23 09:02:17;;;;;;;3.10;1.50;;;;;;;16.10;56.71;94944.06;6154353;23;20162;-80
2023/04/23 09:04:44;;;;;;;2.50;1.50;;;;;;;16.36;55.72;94939.91;6153885;23;20167;-77
2023/04/23 09:07:12;;;;;;;2.97;1.88;;;;;;;16.66;54.30;94941.19;6156492;23;20210;-83
2023/04/23 09:09:38;;;;;;;1.85;1.60;;;;;;;16.68;53.60;94939.19;6159725;23;20650;-82
2023/04/23 09:12:07;;;;;;;1.95;1.50;;;;;;;16.56;52.22;94940.75;6157982;23;20163;-83
2023/04/23 09:14:50;;;;;;;1.77;1.60;;;;;;;16.62;53.60;94939.97;6158468;23;20538;-82
2023/04/23 09:23:15;;;;;;;1.98;1.70;;;;;;;16.28;55.55;94927.81;6158479;23;20154;-82
2023/04/23 13:47:52;;;;;;;1.80;1.00;;;;;;;20.51;33.71;94599.59;6153854;23;20207;-79
2023/04/23 13:50:17;;;;;;;3.80;3.38;;;;;;;20.43;36.93;94600.75;6153054;23;20594;-81
2023/04/23 13:52:43;;;;;;;1.40;1.30;;;;;;;20.39;38.86;94594.28;6128201;23;20619;-82
2023/04/23 13:55:09;;;;;;;1.20;1.02;;;;;;;20.31;36.57;94590.19;6135675;23;20195;-82
2023/04/23 13:57:34;;;;;;;1.40;1.30;;;;;;;20.74;36.55;94578.44;6166105;23;20179;-82
2023/04/23 13:59:59;;;;;;;3.55;2.40;;;;;;;20.90;36.85;94582.19;6166640;23;20158;-82
2023/04/23 14:02:25;;;;;;;2.55;1.60;;;;;;;21.27;37.97;94581.81;6142556;23;20155;-83
2023/04/23 14:04:50;;;;;;;4.22;2.10;;;;;;;21.00;38.50;94582.38;6158298;23;20645;-84
2023/04/23 14:07:15;;;;;;;1.90;1.00;;;;;;;21.05;34.87;94571.91;6131819;23;20210;-84
2023/04/23 14:09:41;;;;;;;1.13;1.00;;;;;;;21.11;34.09;94575.44;6131913;23;20159;-83
2023/04/23 14:12:06;;;;;;;1.40;1.30;;;;;;;20.86;33.62;94567.88;6132024;23;20170;-83
2023/04/23 14:14:32;;;;;;;1.85;0.95;;;;;;;20.47;33.10;94570.25;6131918;23;20170;-84
2023/04/23 14:16:57;;;;;;;1.08;0.90;;;;;;;20.76;32.41;94562.38;6128543;23;20163;-83
2023/04/23 14:19:23;;;;;;;1.77;0.80;;;;;;;20.02;34.53;94567.41;6175971;23;20190;-83
2023/04/23 14:21:48;;;;;;;1.02;0.80;;;;;;;20.36;33.48;94560.50;6152180;23;20151;-84
2023/04/23 14:24:22;;;;;;;1.40;1.00;;;;;;;20.57;33.56;94551.19;6152618;23;20151;-83
2023/04/23 14:26:47;;;;;;;4.57;0.80;;;;;;;19.90;33.91;94562.13;6151107;23;20583;-83
2023/04/23 14:29:31;;;;;;;2.17;0.60;;;;;;;19.32;33.12;94560.19;6127385;23;20163;-82
2023/04/23 14:31:57;;;;;;;2.00;1.85;;;;;;;18.96;34.67;94550.59;6152106;23;20959;-83
2023/04/23 14:34:23;;;;;;;0.68;0.68;;;;;;;18.92;34.84;94544.97;6127318;23;20168;-82
2023/04/23 14:36:48;;;;;;;1.50;0.80;;;;;;;19.24;35.34;94547.34;6125003;23;20179;-83
2023/04/23 14:39:14;;;;;;;1.10;0.60;;;;;;;19.39;34.23;94541.66;6152662;23;20182;-83
2023/04/23 14:41:39;;;;;;;0.95;0.70;;;;;;;19.04;34.81;94537.13;6152746;23;20174;-83
2023/04/23 14:44:05;;;;;;;0.70;0.68;;;;;;;18.96;34.80;94537.44;6151871;23;20233;-83
2023/04/23 14:46:31;;;;;;;0.77;0.73;;;;;;;18.40;34.86;94526.19;6150326;23;20167;-83
2023/04/23 14:48:57;;;;;;;0.68;0.65;;;;;;;19.17;34.92;94530.84;6152807;23;20249;-83
2023/04/23 14:51:22;;;;;;;2.35;0.80;;;;;;;19.36;34.96;94518.44;6153249;23;20139;-83
2023/04/23 14:53:48;;;;;;;0.70;0.70;;;;;;;19.63;35.60;94518.84;6130517;23;20186;-85
2023/04/23 15:02:00;;;;;;;1.10;0.93;;;;;;;18.56;35.29;94509.03;6152513;23;20178;-81
2023/04/23 15:10:55;;;;;;;4.85;1.10;;;;;;;18.49;35.74;94510.13;6183576;23;20193;-87
2023/04/23 15:13:44;;;;;;;1.23;0.90;;;;;;;18.84;36.49;94511.09;6182762;23;20585;-89
2023/04/23 15:16:25;;;;;;;1.42;0.90;;;;;;;18.89;36.62;94502.53;6183563;23;20639;-80
2023/04/23 15:18:50;;;;;;;2.00;0.80;;;;;;;18.27;37.49;94496.63;6183294;23;20170;-81
2023/04/23 15:21:16;;;;;;;3.30;1.00;;;;;;;18.04;36.70;94492.84;6157551;23;20174;-80
2023/04/23 15:23:41;;;;;;;1.90;0.90;;;;;;;18.02;36.59;94496.69;6181951;23;20158;-80
2023/04/23 15:26:07;;;;;;;5.28;1.48;;;;;;;18.65;37.38;94491.94;6156539;23;20297;-80
2023/04/23 15:28:32;;;;;;;4.00;1.67;;;;;;;18.62;35.99;94491.53;6182166;23;20170;-80
2023/04/23 15:30:58;;;;;;;3.33;1.02;;;;;;;18.84;37.46;94484.78;6183767;23;20154;-80
2023/04/23 15:33:23;;;;;;;1.95;1.20;;;;;;;18.46;37.07;94486.88;6182423;23;20155;-80
2023/04/23 15:35:49;;;;;;;3.53;1.15;;;;;;;18.62;36.74;94486.28;6182026;23;20181;-80
2023/04/23 15:38:18;;;;;;;0.70;0.70;;;;;;;18.67;37.34;94482.00;6158267;23;20517;-81
2023/04/23 15:40:43;;;;;;;1.88;0.80;;;;;;;18.47;36.78;94484.06;6180651;23;20163;-80
2023/04/23 15:43:12;;;;;;;2.53;1.45;;;;;;;18.87;37.24;94480.91;6182504;23;20461;-80
2023/04/23 15:45:38;;;;;;;4.72;2.88;;;;;;;19.01;37.00;94479.69;6181585;23;20551;-80
2023/04/23 15:48:03;;;;;;;1.48;0.80;;;;;;;18.47;36.91;94480.63;6156502;23;20174;-80
2023/04/23 15:50:28;;;;;;;0.80;0.80;;;;;;;18.21;37.47;94481.75;6182094;23;20157;-81
2023/04/23 15:52:56;;;;;;;1.92;0.95;;;;;;;18.18;37.35;94480.34;6182485;23;20159;-81
2023/04/23 15:55:21;;;;;;;1.70;0.70;;;;;;;18.26;37.22;94481.88;6159111;23;20177;-87
2023/04/23 15:57:46;;;;;;;2.65;1.50;;;;;;;18.03;37.51;94478.13;6158773;23;20236;-84
2023/04/23 16:00:12;;;;;;;1.13;0.90;;;;;;;17.61;38.13;94495.47;6158669;23;20155;-82
2023/04/23 16:02:37;;;;;;;2.83;1.10;;;;;;;17.78;39.23;94495.75;6182276;23;20165;-82
2023/04/23 16:05:03;;;;;;;2.33;1.23;;;;;;;17.58;38.60;94506.44;6182373;23;20205;-82
2023/04/23 16:07:29;;;;;;;1.95;1.00;;;;;;;17.47;38.35;94514.97;6182412;23;20237;-81
2023/04/23 16:09:54;;;;;;;2.03;1.05;;;;;;;17.19;40.34;94537.19;6185096;23;20516;-81
2023/04/23 16:12:20;;;;;;;1.60;0.90;;;;;;;17.03;42.77;94531.66;6159438;23;20162;-83
2023/04/23 16:14:45;;;;;;;2.92;1.50;;;;;;;16.73;43.97;94519.13;6184767;23;20170;-81
2023/04/23 16:17:10;;;;;;;2.13;1.10;;;;;;;16.83;44.63;94523.91;6183714;23;20254;-82
2023/04/23 16:19:36;;;;;;;2.67;1.67;;;;;;;16.86;44.23;94523.50;6185069;23;20155;-82
2023/04/23 16:22:01;;;;;;;2.55;1.20;;;;;;;16.55;45.08;94532.91;6160200;23;20646;-81
2023/04/23 16:24:27;;;;;;;2.83;0.90;;;;;;;16.46;45.95;94542.03;6160920;23;20190;-82
2023/04/23 16:26:53;;;;;;;2.38;1.20;;;;;;;16.21;46.46;94538.47;6160017;23;20159;-81
2023/04/23 16:29:19;;;;;;;0.85;0.80;;;;;;;15.77;45.37;94550.47;6160210;23;20209;-80
2023/04/23 16:31:44;;;;;;;1.63;0.73;;;;;;;15.53;46.36;94554.47;6161085;23;20621;-81
2023/04/23 16:34:09;;;;;;;2.28;0.90;;;;;;;15.20;48.00;94572.78;6186002;23;20154;-80
2023/04/23 16:36:35;;;;;;;2.72;1.00;;;;;;;15.32;47.82;94579.03;6185063;23;20624;-81
2023/04/23 16:39:00;;;;;;;0.88;0.73;;;;;;;15.22;48.44;94573.38;6183307;23;20179;-81
2023/04/23 16:41:26;;;;;;;3.17;2.88;;;;;;;15.37;49.31;94584.47;6157696;23;20635;-81
2023/04/23 16:43:51;;;;;;;2.35;2.15;;;;;;;15.22;55.61;94599.53;6183632;23;20155;-82
2023/04/23 16:46:16;;;;;;;4.10;2.20;;;;;;;15.04;60.49;94612.38;6182830;23;20150;-82
2023/04/23 16:48:43;;;;;;;15.03;2.97;;;;;;;14.74;65.66;94604.84;6183262;23;20193;-82
2023/04/23 16:51:08;;;;;;;5.83;3.73;;;;;;;14.75;68.18;94562.00;6179135;23;20200;-82
2023/04/23 16:53:34;;;;;;;5.90;4.07;;;;;;;14.90;68.38;94567.09;6181059;23;20596;-82
2023/04/23 16:55:59;;;;;;;8.40;6.50;;;;;;;14.92;69.10;94565.88;6179731;23;20935;-82
2023/04/23 16:58:25;;;;;;;3.03;2.00;;;;;;;14.44;71.47;94563.31;6155994;23;20289;-82
2023/04/23 17:00:50;;;;;;;6.22;3.70;;;;;;;13.87;73.73;94566.25;6180070;23;20150;-81
2023/04/23 17:03:15;;;;;;;19.13;15.43;;;;;;;13.81;74.65;94559.97;6156361;23;20171;-81
2023/04/23 17:05:41;;;;;;;18.97;15.80;;;;;;;13.76;75.66;94551.91;6207315;23;20139;-82
2023/04/23 17:08:06;;;;;;;8.67;5.60;;;;;;;14.02;75.48;94547.84;6182764;23;20518;-82
2023/04/23 17:10:32;;;;;;;4.67;2.87;;;;;;;14.04;75.58;94557.06;6182799;23;20175;-83
2023/04/23 17:12:57;;;;;;;18.03;12.00;;;;;;;13.66;76.90;94558.47;6182877;23;20158;-82
2023/04/23 17:15:22;;;;;;;8.47;7.10;;;;;;;13.87;75.85;94558.41;6182766;23;20171;-83
2023/04/23 17:17:48;;;;;;;1.60;1.50;;;;;;;13.90;75.54;94558.03;6182298;23;20260;-83
2023/04/23 17:20:13;;;;;;;2.53;1.40;;;;;;;13.73;77.22;94549.69;6158911;23;20301;-84
2023/04/23 17:22:38;;;;;;;3.10;1.80;;;;;;;13.72;77.26;94550.69;6157630;23;20158;-83
2023/04/23 17:25:05;;;;;;;1.87;1.30;;;;;;;13.84;76.23;94554.34;6157676;23;20197;-82
2023/04/23 17:27:30;;;;;;;2.17;1.77;;;;;;;13.80;75.46;94553.16;6182386;23;20572;-82
2023/04/23 17:29:55;;;;;;;2.03;1.80;;;;;;;13.78;74.30;94547.31;6158387;23;20171;-82
2023/04/23 17:32:21;;;;;;;4.33;2.20;;;;;;;13.75;73.16;94539.84;6182801;23;20151;-82
2023/04/23 17:34:46;;;;;;;1.30;1.20;;;;;;;13.88;72.35;94539.16;6182506;23;20201;-83
2023/04/23 17:37:12;;;;;;;4.23;1.87;;;;;;;13.77;71.66;94539.66;6157027;23;20186;-82
2023/04/23 17:39:37;;;;;;;2.83;1.67;;;;;;;13.81;70.72;94539.09;6157566;23;20158;-83